sensor_id;sensor_type;location;lat;lon;timestamp;pressure;altitude;pressure_sealevel;temperature;humidity
48553;BME280;34335;51.566;6.994;2023-08-06T00:02:18;99887.00;;;15.63;100.00
48553;BME280;34335;51.566;6.994;2023-08-06T00:04:43;99887.91;;;15.62;100.00
48553;BME280;34335;51.566;6.994;2023-08-06T00:07:08;99892.94;;;15.68;100.00
48553;BME280;34335;51.566;6.994;2023-08-06T00:09:34;99887.06;;;15.62;100.00
48553;BME280;34335;51.566;6.994;2023-08-06T00:11:59;99886.91;;;15.66;100.00
48553;BME280;34335;51.566;6.994;2023-08-06T00:14:24;99888.47;;;15.72;100.00
48553;BME280;34335;51.566;6.994;2023-08-06T00:16:49;99886.38;;;15.56;100.00
48553;BME280;34335;51.566;6.994;2023-08-06T00:19:15;99876.78;;;15.55;100.00
48553;BME280;34335;51.566;6.994;2023-08-06T00:21:40;99873.09;;;15.61;100.00
48553;BME280;34335;51.566;6.994;2023-08-06T00:24:05;99872.44;;;15.54;100.00
48553;BME280;34335;51.566;6.994;2023-08-06T00:26:31;99867.59;;;15.69;100.00
48553;BME280;34335;51.566;6.994;2023-08-06T00:28:56;99868.03;;;15.56;100.00
48553;BME280;34335;51.566;6.994;2023-08-06T00:31:21;99869.31;;;15.45;100.00
48553;BME280;34335;51.566;6.994;2023-08-06T00:33:47;99872.00;;;15.43;100.00
48553;BME280;34335;51.566;6.994;2023-08-06T00:36:12;99866.28;;;15.57;100.00
48553;BME280;34335;51.566;6.994;2023-08-06T00:38:37;99861.06;;;15.55;100.00
48553;BME280;34335;51.566;6.994;2023-08-06T00:41:02;99863.66;;;15.57;100.00
48553;BME280;34335;51.566;6.994;2023-08-06T00:43:28;99865.25;;;15.61;100.00
48553;BME280;34335;51.566;6.994;2023-08-06T00:45:53;99853.09;;;15.58;100.00
48553;BME280;34335;51.566;6.994;2023-08-06T00:48:19;99861.81;;;15.59;100.00
48553;BME280;34335;51.566;6.994;2023-08-06T00:50:44;99862.69;;;15.60;100.00
48553;BME280;34335;51.566;6.994;2023-08-06T00:53:10;99852.53;;;15.50;100.00
48553;BME280;34335;51.566;6.994;2023-08-06T00:55:35;99849.91;;;15.50;100.00
48553;BME280;34335;51.566;6.994;2023-08-06T00:58:01;99851.72;;;15.48;100.00
48553;BME280;34335;51.566;6.994;2023-08-06T01:00:27;99852.63;;;15.47;100.00
48553;BME280;34335;51.566;6.994;2023-08-06T01:02:53;99844.97;;;15.41;100.00
48553;BME280;34335;51.566;6.994;2023-08-06T01:05:20;99845.78;;;15.43;100.00
48553;BME280;34335;51.566;6.994;2023-08-06T01:12:55;99832.84;;;15.38;100.00
48553;BME280;34335;51.566;6.994;2023-08-06T01:15:28;99834.59;;;15.38;100.00
48553;BME280;34335;51.566;6.994;2023-08-06T01:17:54;99838.53;;;15.24;100.00
48553;BME280;34335;51.566;6.994;2023-08-06T01:20:19;99827.16;;;15.25;100.00
48553;BME280;34335;51.566;6.994;2023-08-06T01:22:45;99824.78;;;15.45;100.00
48553;BME280;34335;51.566;6.994;2023-08-06T01:25:11;99832.63;;;15.45;100.00
48553;BME280;34335;51.566;6.994;2023-08-06T01:30:16;99827.47;;;15.43;100.00
48553;BME280;34335;51.566;6.994;2023-08-06T01:32:44;99831.06;;;15.39;100.00
48553;BME280;34335;51.566;6.994;2023-08-06T01:35:12;99828.69;;;15.33;100.00
48553;BME280;34335;51.566;6.994;2023-08-06T01:37:39;99828.03;;;15.26;100.00
48553;BME280;34335;51.566;6.994;2023-08-06T01:40:11;99825.94;;;15.36;100.00
48553;BME280;34335;51.566;6.994;2023-08-06T01:42:37;99822.31;;;15.40;100.00
48553;BME280;34335;51.566;6.994;2023-08-06T01:45:03;99822.09;;;15.46;100.00
48553;BME280;34335;51.566;6.994;2023-08-06T01:47:28;99818.06;;;15.36;100.00
48553;BME280;34335;51.566;6.994;2023-08-06T01:49:53;99817.41;;;15.31;100.00
48553;BME280;34335;51.566;6.994;2023-08-06T01:52:19;99814.63;;;15.59;100.00
48553;BME280;34335;51.566;6.994;2023-08-06T01:54:44;99807.59;;;15.36;100.00
48553;BME280;34335;51.566;6.994;2023-08-06T01:57:09;99807.41;;;15.42;100.00
48553;BME280;34335;51.566;6.994;2023-08-06T01:59:35;99803.75;;;15.46;100.00
48553;BME280;34335;51.566;6.994;2023-08-06T02:02:00;99805.88;;;15.35;100.00
48553;BME280;34335;51.566;6.994;2023-08-06T02:04:25;99800.22;;;15.47;100.00
48553;BME280;34335;51.566;6.994;2023-08-06T02:06:51;99796.44;;;15.31;100.00
48553;BME280;34335;51.566;6.994;2023-08-06T02:09:16;99796.59;;;15.26;100.00
48553;BME280;34335;51.566;6.994;2023-08-06T02:11:41;99795.47;;;15.33;100.00
48553;BME280;34335;51.566;6.994;2023-08-06T02:14:07;99798.09;;;15.33;100.00
48553;BME280;34335;51.566;6.994;2023-08-06T02:16:32;99803.91;;;15.16;100.00
48553;BME280;34335;51.566;6.994;2023-08-06T02:18:57;99792.38;;;15.22;100.00
48553;BME280;34335;51.566;6.994;2023-08-06T02:21:22;99793.88;;;15.29;100.00
48553;BME280;34335;51.566;6.994;2023-08-06T02:23:48;99792.53;;;15.17;100.00
48553;BME280;34335;51.566;6.994;2023-08-06T02:26:13;99797.34;;;15.30;100.00
48553;BME280;34335;51.566;6.994;2023-08-06T02:28:38;99793.06;;;15.27;100.00
48553;BME280;34335;51.566;6.994;2023-08-06T02:31:03;99791.88;;;15.36;100.00
48553;BME280;34335;51.566;6.994;2023-08-06T02:33:29;99792.09;;;15.30;100.00
48553;BME280;34335;51.566;6.994;2023-08-06T02:36:01;99795.72;;;15.25;100.00
48553;BME280;34335;51.566;6.994;2023-08-06T02:38:28;99793.81;;;15.31;100.00
48553;BME280;34335;51.566;6.994;2023-08-06T02:40:53;99786.13;;;15.26;100.00
48553;BME280;34335;51.566;6.994;2023-08-06T02:43:19;99784.59;;;15.44;100.00
48553;BME280;34335;51.566;6.994;2023-08-06T02:45:44;99784.25;;;15.30;100.00
48553;BME280;34335;51.566;6.994;2023-08-06T02:48:09;99778.09;;;15.31;100.00
48553;BME280;34335;51.566;6.994;2023-08-06T02:50:39;99774.63;;;15.30;100.00
48553;BME280;34335;51.566;6.994;2023-08-06T02:53:06;99770.91;;;15.36;100.00
48553;BME280;34335;51.566;6.994;2023-08-06T02:55:32;99781.41;;;15.36;100.00
48553;BME280;34335;51.566;6.994;2023-08-06T02:57:58;99770.81;;;15.39;100.00
48553;BME280;34335;51.566;6.994;2023-08-06T03:00:24;99763.34;;;15.28;100.00
48553;BME280;34335;51.566;6.994;2023-08-06T03:02:49;99762.72;;;15.21;100.00
48553;BME280;34335;51.566;6.994;2023-08-06T03:05:14;99759.34;;;15.18;100.00
48553;BME280;34335;51.566;6.994;2023-08-06T03:07:39;99761.09;;;15.17;100.00
48553;BME280;34335;51.566;6.994;2023-08-06T03:10:05;99746.41;;;15.13;100.00
48553;BME280;34335;51.566;6.994;2023-08-06T03:12:31;99746.59;;;15.08;100.00
48553;BME280;34335;51.566;6.994;2023-08-06T03:14:56;99751.66;;;15.13;100.00
48553;BME280;34335;51.566;6.994;2023-08-06T03:17:21;99750.38;;;15.00;100.00
48553;BME280;34335;51.566;6.994;2023-08-06T03:19:46;99743.06;;;15.09;100.00
48553;BME280;34335;51.566;6.994;2023-08-06T03:22:12;99748.66;;;14.99;100.00
48553;BME280;34335;51.566;6.994;2023-08-06T03:24:37;99745.94;;;15.02;100.00
48553;BME280;34335;51.566;6.994;2023-08-06T03:27:02;99745.06;;;15.01;100.00
48553;BME280;34335;51.566;6.994;2023-08-06T03:29:28;99745.38;;;15.17;100.00
48553;BME280;34335;51.566;6.994;2023-08-06T03:31:53;99745.72;;;15.08;100.00
48553;BME280;34335;51.566;6.994;2023-08-06T03:34:18;99749.94;;;15.12;100.00
48553;BME280;34335;51.566;6.994;2023-08-06T03:36:43;99749.81;;;15.15;100.00
48553;BME280;34335;51.566;6.994;2023-08-06T03:39:09;99748.91;;;15.16;100.00
48553;BME280;34335;51.566;6.994;2023-08-06T03:41:34;99743.66;;;15.16;100.00
48553;BME280;34335;51.566;6.994;2023-08-06T03:44:00;99742.84;;;15.16;100.00
48553;BME280;34335;51.566;6.994;2023-08-06T03:46:27;99737.53;;;15.17;100.00
48553;BME280;34335;51.566;6.994;2023-08-06T03:48:53;99748.88;;;15.18;100.00
48553;BME280;34335;51.566;6.994;2023-08-06T03:51:18;99736.69;;;15.17;100.00
48553;BME280;34335;51.566;6.994;2023-08-06T03:53:43;99736.72;;;15.15;100.00
48553;BME280;34335;51.566;6.994;2023-08-06T03:56:09;99741.78;;;15.20;100.00
48553;BME280;34335;51.566;6.994;2023-08-06T03:58:34;99731.38;;;15.18;100.00
48553;BME280;34335;51.566;6.994;2023-08-06T04:01:01;99734.81;;;15.20;100.00
48553;BME280;34335;51.566;6.994;2023-08-06T04:03:26;99733.03;;;15.21;100.00
48553;BME280;34335;51.566;6.994;2023-08-06T04:05:52;99737.38;;;15.22;100.00
48553;BME280;34335;51.566;6.994;2023-08-06T04:08:17;99734.91;;;15.17;100.00
48553;BME280;34335;51.566;6.994;2023-08-06T04:10:42;99734.88;;;15.19;100.00
48553;BME280;34335;51.566;6.994;2023-08-06T04:13:08;99738.59;;;15.11;100.00
48553;BME280;34335;51.566;6.994;2023-08-06T04:15:34;99736.94;;;15.09;100.00
48553;BME280;34335;51.566;6.994;2023-08-06T04:17:59;99742.09;;;15.12;100.00
48553;BME280;34335;51.566;6.994;2023-08-06T04:20:25;99737.84;;;15.08;100.00
48553;BME280;34335;51.566;6.994;2023-08-06T04:22:50;99739.72;;;15.04;100.00
48553;BME280;34335;51.566;6.994;2023-08-06T04:25:16;99738.09;;;15.02;100.00
48553;BME280;34335;51.566;6.994;2023-08-06T04:27:48;99728.56;;;14.99;100.00
48553;BME280;34335;51.566;6.994;2023-08-06T04:30:13;99740.78;;;14.99;100.00
48553;BME280;34335;51.566;6.994;2023-08-06T04:32:39;99744.31;;;14.98;100.00
48553;BME280;34335;51.566;6.994;2023-08-06T04:35:05;99738.31;;;14.95;100.00
48553;BME280;34335;51.566;6.994;2023-08-06T04:37:30;99736.53;;;14.96;100.00
48553;BME280;34335;51.566;6.994;2023-08-06T04:39:56;99737.38;;;14.96;100.00
48553;BME280;34335;51.566;6.994;2023-08-06T04:42:21;99733.84;;;14.98;100.00
48553;BME280;34335;51.566;6.994;2023-08-06T04:44:46;99730.31;;;14.99;100.00
48553;BME280;34335;51.566;6.994;2023-08-06T04:47:11;99732.94;;;14.99;100.00
48553;BME280;34335;51.566;6.994;2023-08-06T04:49:37;99736.44;;;14.99;100.00
48553;BME280;34335;51.566;6.994;2023-08-06T04:52:02;99731.94;;;15.03;100.00
48553;BME280;34335;51.566;6.994;2023-08-06T04:54:28;99730.22;;;15.02;100.00
48553;BME280;34335;51.566;6.994;2023-08-06T04:56:53;99733.75;;;15.01;100.00
48553;BME280;34335;51.566;6.994;2023-08-06T04:59:18;99738.88;;;15.04;100.00
48553;BME280;34335;51.566;6.994;2023-08-06T05:01:43;99735.97;;;15.11;100.00
48553;BME280;34335;51.566;6.994;2023-08-06T05:04:09;99735.03;;;15.14;100.00
48553;BME280;34335;51.566;6.994;2023-08-06T05:06:34;99739.66;;;15.06;100.00
48553;BME280;34335;51.566;6.994;2023-08-06T05:08:59;99734.91;;;15.17;100.00
48553;BME280;34335;51.566;6.994;2023-08-06T05:11:25;99740.31;;;15.13;100.00
48553;BME280;34335;51.566;6.994;2023-08-06T05:13:50;99740.31;;;15.13;100.00
48553;BME280;34335;51.566;6.994;2023-08-06T05:16:15;99742.66;;;15.20;100.00
48553;BME280;34335;51.566;6.994;2023-08-06T05:18:41;99736.72;;;15.15;100.00
48553;BME280;34335;51.566;6.994;2023-08-06T05:21:06;99746.25;;;15.18;100.00
48553;BME280;34335;51.566;6.994;2023-08-06T05:23:32;99746.78;;;15.27;100.00
48553;BME280;34335;51.566;6.994;2023-08-06T05:25:57;99750.44;;;15.23;100.00
48553;BME280;34335;51.566;6.994;2023-08-06T05:28:22;99759.06;;;15.25;100.00
48553;BME280;34335;51.566;6.994;2023-08-06T05:30:48;99755.34;;;15.33;100.00
48553;BME280;34335;51.566;6.994;2023-08-06T05:33:13;99765.19;;;15.50;100.00
48553;BME280;34335;51.566;6.994;2023-08-06T05:35:40;99765.66;;;15.37;100.00
48553;BME280;34335;51.566;6.994;2023-08-06T05:38:06;99755.94;;;15.39;100.00
48553;BME280;34335;51.566;6.994;2023-08-06T05:40:33;99761.03;;;15.44;100.00
48553;BME280;34335;51.566;6.994;2023-08-06T05:42:58;99770.91;;;15.36;100.00
48553;BME280;34335;51.566;6.994;2023-08-06T05:45:24;99768.38;;;15.34;100.00
48553;BME280;34335;51.566;6.994;2023-08-06T05:47:49;99773.53;;;15.36;100.00
48553;BME280;34335;51.566;6.994;2023-08-06T05:50:15;99775.72;;;15.48;100.00
48553;BME280;34335;51.566;6.994;2023-08-06T05:52:40;99777.88;;;15.37;100.00
48553;BME280;34335;51.566;6.994;2023-08-06T05:55:06;99775.06;;;15.43;100.00
48553;BME280;34335;51.566;6.994;2023-08-06T05:57:31;99772.84;;;15.56;100.00
48553;BME280;34335;51.566;6.994;2023-08-06T05:59:56;99776.31;;;15.56;100.00
48553;BME280;34335;51.566;6.994;2023-08-06T06:02:22;99765.88;;;15.55;100.00
48553;BME280;34335;51.566;6.994;2023-08-06T06:04:47;99776.13;;;15.61;100.00
48553;BME280;34335;51.566;6.994;2023-08-06T06:07:13;99782.25;;;15.62;100.00
48553;BME280;34335;51.566;6.994;2023-08-06T06:09:39;99781.03;;;15.70;100.00
48553;BME280;34335;51.566;6.994;2023-08-06T06:12:06;99787.00;;;15.74;100.00
48553;BME280;34335;51.566;6.994;2023-08-06T06:14:31;99785.69;;;15.87;100.00
48553;BME280;34335;51.566;6.994;2023-08-06T06:16:57;99792.25;;;15.74;100.00
48553;BME280;34335;51.566;6.994;2023-08-06T06:19:22;99789.03;;;15.91;100.00
48553;BME280;34335;51.566;6.994;2023-08-06T06:21:47;99789.91;;;15.92;100.00
48553;BME280;34335;51.566;6.994;2023-08-06T06:24:13;99790.50;;;15.98;100.00
48553;BME280;34335;51.566;6.994;2023-08-06T06:26:38;99787.59;;;15.82;100.00
48553;BME280;34335;51.566;6.994;2023-08-06T06:29:04;99787.97;;;15.97;100.00
48553;BME280;34335;51.566;6.994;2023-08-06T06:31:29;99791.06;;;16.07;100.00
48553;BME280;34335;51.566;6.994;2023-08-06T06:33:55;99793.09;;;16.00;100.00
48553;BME280;34335;51.566;6.994;2023-08-06T06:36:20;99785.66;;;16.11;100.00
48553;BME280;34335;51.566;6.994;2023-08-06T06:38:46;99793.97;;;16.23;100.00
48553;BME280;34335;51.566;6.994;2023-08-06T06:41:13;99796.28;;;16.08;100.00
48553;BME280;34335;51.566;6.994;2023-08-06T06:43:38;99791.94;;;16.07;100.00
48553;BME280;34335;51.566;6.994;2023-08-06T06:46:05;99803.25;;;16.09;100.00
48553;BME280;34335;51.566;6.994;2023-08-06T06:48:32;99795.13;;;16.15;100.00
48553;BME280;34335;51.566;6.994;2023-08-06T06:50:58;99794.22;;;16.16;100.00
48553;BME280;34335;51.566;6.994;2023-08-06T06:53:23;99791.53;;;16.18;100.00
48553;BME280;34335;51.566;6.994;2023-08-06T06:56:03;99794.88;;;16.22;100.00
48553;BME280;34335;51.566;6.994;2023-08-06T06:58:29;99787.34;;;16.36;100.00
48553;BME280;34335;51.566;6.994;2023-08-06T07:00:54;99799.97;;;16.48;100.00
48553;BME280;34335;51.566;6.994;2023-08-06T07:03:20;99792.69;;;16.55;100.00
48553;BME280;34335;51.566;6.994;2023-08-06T07:05:45;99789.16;;;16.56;100.00
48553;BME280;34335;51.566;6.994;2023-08-06T07:08:11;99789.88;;;16.60;100.00
48553;BME280;34335;51.566;6.994;2023-08-06T07:10:36;99801.50;;;16.54;100.00
48553;BME280;34335;51.566;6.994;2023-08-06T07:13:02;99795.13;;;16.60;100.00
48553;BME280;34335;51.566;6.994;2023-08-06T07:15:28;99788.47;;;16.73;100.00
48553;BME280;34335;51.566;6.994;2023-08-06T07:17:53;99802.38;;;16.75;100.00
48553;BME280;34335;51.566;6.994;2023-08-06T07:20:18;99799.09;;;16.70;100.00
48553;BME280;34335;51.566;6.994;2023-08-06T07:22:44;99793.34;;;16.82;100.00
48553;BME280;34335;51.566;6.994;2023-08-06T07:25:10;99794.56;;;16.96;100.00
48553;BME280;34335;51.566;6.994;2023-08-06T07:27:36;99795.34;;;16.98;100.00
48553;BME280;34335;51.566;6.994;2023-08-06T07:30:01;99797.97;;;16.98;100.00
48553;BME280;34335;51.566;6.994;2023-08-06T07:32:26;99800.59;;;16.98;100.00
48553;BME280;34335;51.566;6.994;2023-08-06T07:34:53;99803.38;;;17.16;100.00
48553;BME280;34335;51.566;6.994;2023-08-06T07:37:22;99802.31;;;17.20;100.00
48553;BME280;34335;51.566;6.994;2023-08-06T07:39:48;99800.34;;;17.25;100.00
48553;BME280;34335;51.566;6.994;2023-08-06T07:42:13;99814.53;;;17.41;100.00
48553;BME280;34335;51.566;6.994;2023-08-06T07:44:39;99808.22;;;17.46;100.00
48553;BME280;34335;51.566;6.994;2023-08-06T07:47:05;99809.78;;;17.50;100.00
48553;BME280;34335;51.566;6.994;2023-08-06T07:49:30;99810.50;;;17.53;100.00
48553;BME280;34335;51.566;6.994;2023-08-06T07:51:55;99804.50;;;17.70;100.00
48553;BME280;34335;51.566;6.994;2023-08-06T07:54:21;99815.91;;;17.90;100.00
48553;BME280;34335;51.566;6.994;2023-08-06T07:56:46;99811.75;;;17.84;100.00
48553;BME280;34335;51.566;6.994;2023-08-06T07:59:12;99808.13;;;17.87;100.00
48553;BME280;34335;51.566;6.994;2023-08-06T08:01:37;99816.94;;;17.86;100.00
48553;BME280;34335;51.566;6.994;2023-08-06T08:04:03;99823.63;;;17.74;100.00
48553;BME280;34335;51.566;6.994;2023-08-06T08:06:29;99817.09;;;17.83;100.00
48553;BME280;34335;51.566;6.994;2023-08-06T08:08:55;99814.91;;;17.92;100.00
48553;BME280;34335;51.566;6.994;2023-08-06T08:11:20;99820.84;;;18.17;100.00
48553;BME280;34335;51.566;6.994;2023-08-06T08:13:46;99814.28;;;18.06;100.00
48553;BME280;34335;51.566;6.994;2023-08-06T08:16:11;99821.28;;;18.27;100.00
48553;BME280;34335;51.566;6.994;2023-08-06T08:18:36;99822.16;;;18.45;100.00
48553;BME280;34335;51.566;6.994;2023-08-06T08:21:02;99823.81;;;18.28;100.00
48553;BME280;34335;51.566;6.994;2023-08-06T08:23:27;99821.91;;;18.13;100.00
48553;BME280;34335;51.566;6.994;2023-08-06T08:25:53;99828.38;;;18.05;100.00
48553;BME280;34335;51.566;6.994;2023-08-06T08:28:19;99828.72;;;18.17;100.00
48553;BME280;34335;51.566;6.994;2023-08-06T08:30:44;99827.22;;;17.92;100.00
48553;BME280;34335;51.566;6.994;2023-08-06T08:33:09;99831.69;;;18.09;100.00
48553;BME280;34335;51.566;6.994;2023-08-06T08:35:36;99836.69;;;17.75;100.00
48553;BME280;34335;51.566;6.994;2023-08-06T08:38:02;99836.66;;;17.56;100.00
48553;BME280;34335;51.566;6.994;2023-08-06T08:40:31;99833.72;;;17.23;100.00
48553;BME280;34335;51.566;6.994;2023-08-06T08:42:58;99837.38;;;17.60;100.00
48553;BME280;34335;51.566;6.994;2023-08-06T08:45:26;99832.94;;;18.21;100.00
48553;BME280;34335;51.566;6.994;2023-08-06T08:47:54;99826.59;;;18.44;100.00
48553;BME280;34335;51.566;6.994;2023-08-06T08:50:19;99836.53;;;18.37;100.00
48553;BME280;34335;51.566;6.994;2023-08-06T08:52:46;99828.72;;;18.73;100.00
48553;BME280;34335;51.566;6.994;2023-08-06T08:55:12;99828.13;;;18.85;100.00
48553;BME280;34335;51.566;6.994;2023-08-06T08:57:39;99833.06;;;18.91;100.00
48553;BME280;34335;51.566;6.994;2023-08-06T09:00:05;99835.88;;;18.88;100.00
48553;BME280;34335;51.566;6.994;2023-08-06T09:02:32;99832.72;;;18.99;100.00
48553;BME280;34335;51.566;6.994;2023-08-06T09:04:58;99832.91;;;18.77;100.00
48553;BME280;34335;51.566;6.994;2023-08-06T09:07:41;99838.00;;;18.62;100.00
48553;BME280;34335;51.566;6.994;2023-08-06T09:10:10;99837.72;;;18.68;100.00
48553;BME280;34335;51.566;6.994;2023-08-06T09:12:36;99838.44;;;18.53;100.00
48553;BME280;34335;51.566;6.994;2023-08-06T09:15:01;99829.34;;;18.60;100.00
48553;BME280;34335;51.566;6.994;2023-08-06T09:17:28;99841.84;;;18.55;100.00
48553;BME280;34335;51.566;6.994;2023-08-06T09:19:54;99839.56;;;18.47;100.00
48553;BME280;34335;51.566;6.994;2023-08-06T09:22:19;99838.09;;;18.78;100.00
48553;BME280;34335;51.566;6.994;2023-08-06T09:24:44;99844.44;;;18.93;100.00
48553;BME280;34335;51.566;6.994;2023-08-06T09:27:14;99853.13;;;18.95;100.00
48553;BME280;34335;51.566;6.994;2023-08-06T09:29:43;99844.25;;;18.79;100.00
48553;BME280;34335;51.566;6.994;2023-08-06T09:32:10;99848.94;;;19.09;100.00
48553;BME280;34335;51.566;6.994;2023-08-06T09:34:38;99852.19;;;19.31;100.00
48553;BME280;34335;51.566;6.994;2023-08-06T09:37:04;99850.66;;;19.27;100.00
48553;BME280;34335;51.566;6.994;2023-08-06T09:39:30;99846.59;;;19.55;100.00
48553;BME280;34335;51.566;6.994;2023-08-06T09:41:57;99851.81;;;19.39;100.00
48553;BME280;34335;51.566;6.994;2023-08-06T09:44:24;99848.94;;;19.26;100.00
48553;BME280;34335;51.566;6.994;2023-08-06T09:46:51;99853.81;;;19.17;100.00
48553;BME280;34335;51.566;6.994;2023-08-06T09:49:18;99859.53;;;19.07;100.00
48553;BME280;34335;51.566;6.994;2023-08-06T09:51:45;99858.81;;;18.86;100.00
48553;BME280;34335;51.566;6.994;2023-08-06T09:54:12;99850.94;;;18.67;100.00
48553;BME280;34335;51.566;6.994;2023-08-06T09:56:38;99848.03;;;18.54;100.00
48553;BME280;34335;51.566;6.994;2023-08-06T09:59:06;99865.53;;;18.55;100.00
48553;BME280;34335;51.566;6.994;2023-08-06T10:01:34;99860.63;;;18.66;100.00
48553;BME280;34335;51.566;6.994;2023-08-06T10:04:01;99867.22;;;18.38;100.00
48553;BME280;34335;51.566;6.994;2023-08-06T10:06:28;99865.06;;;18.09;100.00
48553;BME280;34335;51.566;6.994;2023-08-06T10:08:54;99868.91;;;18.40;100.00
48553;BME280;34335;51.566;6.994;2023-08-06T10:11:21;99864.63;;;18.56;100.00
48553;BME280;34335;51.566;6.994;2023-08-06T10:13:48;99868.56;;;18.84;100.00
48553;BME280;34335;51.566;6.994;2023-08-06T10:16:14;99867.53;;;18.87;100.00
48553;BME280;34335;51.566;6.994;2023-08-06T10:18:40;99866.41;;;18.56;100.00
48553;BME280;34335;51.566;6.994;2023-08-06T10:21:09;99864.66;;;18.74;100.00
48553;BME280;34335;51.566;6.994;2023-08-06T10:23:36;99861.56;;;18.83;100.00
48553;BME280;34335;51.566;6.994;2023-08-06T10:26:03;99863.34;;;19.02;100.00
48553;BME280;34335;51.566;6.994;2023-08-06T10:28:47;99868.00;;;18.96;100.00
48553;BME280;34335;51.566;6.994;2023-08-06T10:31:12;99865.97;;;19.02;100.00
48553;BME280;34335;51.566;6.994;2023-08-06T10:33:45;99861.25;;;19.08;100.00
48553;BME280;34335;51.566;6.994;2023-08-06T10:36:11;99866.63;;;18.88;100.00
48553;BME280;34335;51.566;6.994;2023-08-06T10:38:47;99863.56;;;18.97;100.00
48553;BME280;34335;51.566;6.994;2023-08-06T10:41:23;99864.31;;;19.18;100.00
48553;BME280;34335;51.566;6.994;2023-08-06T10:43:52;99862.41;;;19.20;100.00
48553;BME280;34335;51.566;6.994;2023-08-06T10:46:22;99865.91;;;19.03;100.00
48553;BME280;34335;51.566;6.994;2023-08-06T10:48:48;99868.44;;;18.68;100.00
48553;BME280;34335;51.566;6.994;2023-08-06T10:51:14;99869.66;;;18.80;100.00
48553;BME280;34335;51.566;6.994;2023-08-06T10:53:44;99871.41;;;18.79;100.00
48553;BME280;34335;51.566;6.994;2023-08-06T10:56:14;99881.97;;;18.03;100.00
48553;BME280;34335;51.566;6.994;2023-08-06T10:58:40;99883.06;;;18.18;100.00
48553;BME280;34335;51.566;6.994;2023-08-06T11:01:06;99884.47;;;18.63;100.00
48553;BME280;34335;51.566;6.994;2023-08-06T11:03:33;99889.91;;;18.60;100.00
48553;BME280;34335;51.566;6.994;2023-08-06T11:05:59;99885.38;;;18.62;100.00
48553;BME280;34335;51.566;6.994;2023-08-06T11:08:26;99888.53;;;18.32;100.00
48553;BME280;34335;51.566;6.994;2023-08-06T11:10:52;99898.00;;;18.17;100.00
48553;BME280;34335;51.566;6.994;2023-08-06T11:13:18;99891.09;;;18.34;100.00
48553;BME280;34335;51.566;6.994;2023-08-06T11:15:45;99883.72;;;18.42;100.00
48553;BME280;34335;51.566;6.994;2023-08-06T11:18:10;99888.03;;;18.62;100.00
48553;BME280;34335;51.566;6.994;2023-08-06T11:20:36;99887.41;;;18.57;100.00
48553;BME280;34335;51.566;6.994;2023-08-06T11:23:02;99881.59;;;18.31;100.00
48553;BME280;34335;51.566;6.994;2023-08-06T11:25:28;99882.88;;;18.42;100.00
48553;BME280;34335;51.566;6.994;2023-08-06T11:27:54;99883.50;;;18.47;100.00
48553;BME280;34335;51.566;6.994;2023-08-06T11:30:19;99890.75;;;18.22;100.00
48553;BME280;34335;51.566;6.994;2023-08-06T11:32:46;99886.25;;;18.44;100.00
48553;BME280;34335;51.566;6.994;2023-08-06T11:35:12;99897.78;;;18.41;100.00
48553;BME280;34335;51.566;6.994;2023-08-06T11:37:39;99894.22;;;18.23;100.00
48553;BME280;34335;51.566;6.994;2023-08-06T11:40:08;99897.34;;;18.12;100.00
48553;BME280;34335;51.566;6.994;2023-08-06T11:42:36;99892.53;;;18.22;100.00
48553;BME280;34335;51.566;6.994;2023-08-06T11:45:02;99904.31;;;17.92;100.00
48553;BME280;34335;51.566;6.994;2023-08-06T11:47:28;99907.25;;;17.86;100.00
48553;BME280;34335;51.566;6.994;2023-08-06T11:49:53;99900.22;;;17.46;100.00
48553;BME280;34335;51.566;6.994;2023-08-06T11:52:21;99898.00;;;16.92;100.00
48553;BME280;34335;51.566;6.994;2023-08-06T11:55:08;99897.63;;;16.79;100.00
48553;BME280;34335;51.566;6.994;2023-08-06T11:57:38;99910.16;;;16.72;100.00
48553;BME280;34335;51.566;6.994;2023-08-06T12:00:09;99907.50;;;16.72;100.00
48553;BME280;34335;51.566;6.994;2023-08-06T12:02:36;99909.34;;;16.70;100.00
48553;BME280;34335;51.566;6.994;2023-08-06T12:05:22;99905.50;;;16.79;100.00
48553;BME280;34335;51.566;6.994;2023-08-06T12:07:52;99911.28;;;16.43;100.00
48553;BME280;34335;51.566;6.994;2023-08-06T12:10:18;99914.88;;;16.16;100.00
48553;BME280;34335;51.566;6.994;2023-08-06T12:12:45;99929.69;;;16.65;100.00
48553;BME280;34335;51.566;6.994;2023-08-06T12:15:11;99925.34;;;16.40;100.00
48553;BME280;34335;51.566;6.994;2023-08-06T12:17:36;99935.34;;;16.30;100.00
48553;BME280;34335;51.566;6.994;2023-08-06T12:20:03;99937.69;;;16.38;100.00
48553;BME280;34335;51.566;6.994;2023-08-06T12:22:30;99945.56;;;16.38;100.00
48553;BME280;34335;51.566;6.994;2023-08-06T12:25:00;99939.47;;;16.60;100.00
48553;BME280;34335;51.566;6.994;2023-08-06T12:27:26;99948.50;;;16.52;100.00
48553;BME280;34335;51.566;6.994;2023-08-06T12:29:51;99965.53;;;16.18;100.00
48553;BME280;34335;51.566;6.994;2023-08-06T12:32:17;99963.91;;;16.14;100.00
48553;BME280;34335;51.566;6.994;2023-08-06T12:34:42;99967.59;;;15.56;100.00
48553;BME280;34335;51.566;6.994;2023-08-06T12:37:08;99976.28;;;15.58;100.00
48553;BME280;34335;51.566;6.994;2023-08-06T12:39:34;99979.50;;;15.40;100.00
48553;BME280;34335;51.566;6.994;2023-08-06T12:42:04;99978.09;;;15.56;100.00
48553;BME280;34335;51.566;6.994;2023-08-06T12:44:30;99979.91;;;15.54;100.00
48553;BME280;34335;51.566;6.994;2023-08-06T12:46:56;99984.59;;;15.16;100.00
48553;BME280;34335;51.566;6.994;2023-08-06T12:49:21;99982.19;;;15.10;100.00
48553;BME280;34335;51.566;6.994;2023-08-06T12:51:50;99987.09;;;15.21;100.00
48553;BME280;34335;51.566;6.994;2023-08-06T12:54:17;99994.72;;;15.00;100.00